Thursday, July 24, 2014
23:06 UTC
  |  Log In   |  Register Free
Airport Search:

Hillsboro Municipal Airport
(KINJ)

Hillsboro Municipal Airport Diagram
No Airport Diagram Available

FAA data valid effective July 24, 2014 until September 18, 2014 (unless otherwise noted).

 
 
 
 
 
 
 
 
 
 
 
 
 
 

Current Aviation Weather for Hillsboro Municipal Airport (KINJ)

The most recent METAR observation for KINJ was updated at: 2235 UTC
METAR Summary (Translated METAR)
KINJ
242235Z AUTO 06007KT 10SM CLR 36/17 A2996 RMK AO2 T03560168
KCPT
(23.6 nm NW from KINJ)
242235Z AUTO 00000G10KT 10SM CLR 35/17 A2998 RMK AO2
TAF
No TAF information found within 50 nm of KINJ
  Airport Weather Conditions for KINJ

 Current Weather at INJ
96° F
Fair
East winds at 6.9 mph
INJ NOAA Radar

Pressure: 29.97 in
Humidity: 30%
Wind: East at 6.9 MPH (6 KT)
Dew Point: 60.3°F
Visibility: 10.00 mi


Airport Weather Forecast for KINJ

Translated METAR and TAF for KINJ
Translated METAR for KINJ (2259 UTC 24 July 2014)
found at http://aviationweather.gov/adds/metars/
 
METAR text: KINJ 242255Z AUTO 07008KT 10SM CLR 35/16 A2996 RMK AO2 T03530161
Conditions at: KINJ (HILLSBORO , TX, US) observed 2255 UTC 24 July 2014
Temperature: 35.3°C (96°F)
Dewpoint: 16.1°C (61°F) [RH = 32%]
Pressure (altimeter): 29.96 inches Hg (1014.6 mb)
Winds: from the ENE (70 degrees) at 9 MPH (8 knots; 4.2 m/s)
Visibility: 10 or more miles (16+ km)
Ceiling: at least 12,000 feet AGL
Clouds: sky clear below 12,000 feet AGL
Weather: automated observation with no human augmentation;
there may or may not be significant weather present at this time
Translated TAF for KINJ

There is no translated TAF available for this airport

Find All Airport Services Find A Hotel Find A Rental Car Find A Golf Course Find A Restaurant $100 Hamburger



FBO's on the Field
FBO Company Facility Photos Services Transportation Aviation Fuel Prices: Prices include tax
Catering Weather Repair Courtesy Rental Type 100LL JetA JetA+ MOGAS 8087
 
Add another FBO Facility Photos Catering Weather Repair Courtesy Rental Type 100LL JetA JetA+ MOGAS 8087
Services Transportation Aviation Fuel Prices: Prices include tax
There are no FBO's currently reporting fuel at INJ. List your FBO now


GlobalAir.com Airport Resource Center model-print
model-print
model-print
model-print